createdAt,value
2022-08-20T00:00:00.323Z,68
2022-08-20T00:05:00.178Z,68
2022-08-20T00:10:00.163Z,68
2022-08-20T00:15:00.140Z,68
2022-08-20T00:20:00.266Z,69
2022-08-20T00:25:00.251Z,69
2022-08-20T00:30:00.240Z,71
2022-08-20T00:35:00.130Z,71
2022-08-20T00:40:00.436Z,71
2022-08-20T00:45:00.133Z,72
2022-08-20T00:50:00.225Z,73
2022-08-20T00:55:00.197Z,73
2022-08-20T01:00:00.288Z,74
2022-08-20T01:05:00.156Z,75
2022-08-20T01:10:00.211Z,75
2022-08-20T01:15:00.223Z,75
2022-08-20T01:20:00.223Z,75
2022-08-20T01:25:00.143Z,76
2022-08-20T01:30:00.269Z,77
2022-08-20T01:35:00.141Z,78
2022-08-20T01:40:00.381Z,79
2022-08-20T01:45:00.526Z,80
2022-08-20T01:50:00.296Z,80
2022-08-20T01:55:00.186Z,81
2022-08-20T02:00:00.239Z,82
2022-08-20T02:05:00.217Z,82
2022-08-20T02:10:00.233Z,82
2022-08-20T02:15:00.253Z,82
2022-08-20T02:20:00.263Z,82
2022-08-20T02:25:00.119Z,82
2022-08-20T02:30:00.271Z,83
2022-08-20T02:35:00.255Z,83
2022-08-20T02:40:00.324Z,83
2022-08-20T02:45:00.127Z,83
2022-08-20T02:50:00.296Z,83
2022-08-20T02:55:00.124Z,83
2022-08-20T03:00:00.315Z,83
2022-08-20T03:05:00.268Z,84
2022-08-20T03:10:00.249Z,84
2022-08-20T03:15:00.122Z,84
2022-08-20T03:20:00.277Z,84
2022-08-20T03:25:00.234Z,84
2022-08-20T03:30:00.285Z,84
2022-08-20T03:35:00.206Z,84
2022-08-20T03:40:00.422Z,84
2022-08-20T03:45:00.219Z,84
2022-08-20T03:50:00.221Z,84
2022-08-20T03:55:00.125Z,84
2022-08-20T04:00:00.256Z,84
2022-08-20T04:05:00.209Z,84
2022-08-20T04:10:00.331Z,84
2022-08-20T04:15:00.245Z,84
2022-08-20T04:20:00.210Z,84
2022-08-20T04:25:00.149Z,84
2022-08-20T04:30:00.318Z,85
2022-08-20T04:35:00.214Z,84
2022-08-20T04:40:00.398Z,85
2022-08-20T04:45:00.152Z,85
2022-08-20T04:50:00.347Z,85
2022-08-20T04:55:00.164Z,85
2022-08-20T05:00:00.288Z,85
2022-08-20T05:05:00.195Z,85
2022-08-20T05:10:00.255Z,85
2022-08-20T05:15:00.196Z,85
2022-08-20T05:20:00.256Z,85
2022-08-20T05:25:00.205Z,85
2022-08-20T05:30:00.270Z,85
2022-08-20T05:35:00.208Z,85
2022-08-20T05:40:00.329Z,85
2022-08-20T05:45:00.127Z,85
2022-08-20T05:50:00.241Z,85
2022-08-20T05:55:00.124Z,85
2022-08-20T06:00:00.245Z,85
2022-08-20T06:05:00.131Z,85
2022-08-20T06:10:00.268Z,85
2022-08-20T06:15:00.144Z,85
2022-08-20T06:20:00.220Z,85
2022-08-20T06:25:00.142Z,85
2022-08-20T06:30:00.218Z,85
2022-08-20T06:35:00.204Z,86
2022-08-20T06:40:00.379Z,86
2022-08-20T06:45:00.210Z,86
2022-08-20T06:50:00.290Z,86
2022-08-20T06:55:00.224Z,86
2022-08-20T07:00:00.318Z,86
2022-08-20T07:05:00.190Z,86
2022-08-20T07:10:00.229Z,86
2022-08-20T07:15:00.225Z,86
2022-08-20T07:20:00.259Z,86
2022-08-20T07:25:00.191Z,86
2022-08-20T07:30:01.921Z,86
2022-08-20T07:35:00.159Z,86
2022-08-20T07:40:00.407Z,86
2022-08-20T07:45:00.263Z,86
2022-08-20T07:50:00.226Z,86
2022-08-20T07:55:00.168Z,86
2022-08-20T08:00:00.260Z,86
2022-08-20T08:05:00.213Z,87
2022-08-20T08:10:00.220Z,86
2022-08-20T08:15:00.133Z,87
2022-08-20T08:20:00.226Z,87
2022-08-20T08:25:00.131Z,87
2022-08-20T08:30:00.294Z,86
2022-08-20T08:35:00.245Z,87
2022-08-20T08:40:00.337Z,86
2022-08-20T08:45:00.251Z,86
2022-08-20T08:50:00.233Z,87
2022-08-20T08:55:00.130Z,87
2022-08-20T09:00:04.049Z,86
2022-08-20T09:05:00.137Z,86
2022-08-20T09:10:00.300Z,86
2022-08-20T09:15:00.135Z,86
2022-08-20T09:20:00.251Z,85
2022-08-20T09:25:00.134Z,85
2022-08-20T09:30:00.284Z,85
2022-08-20T09:35:00.140Z,83
2022-08-20T09:40:00.348Z,83
2022-08-20T09:45:00.134Z,84
2022-08-20T09:50:00.298Z,83
2022-08-20T09:55:00.279Z,83
2022-08-20T10:00:00.232Z,83
2022-08-20T10:05:00.157Z,82
2022-08-20T10:10:00.283Z,83
2022-08-20T10:15:00.276Z,82
2022-08-20T10:20:00.276Z,83
2022-08-20T10:25:00.264Z,83
2022-08-20T10:30:00.295Z,83
2022-08-20T10:35:00.145Z,82
2022-08-20T10:40:00.443Z,82
2022-08-20T10:45:00.219Z,82
2022-08-20T10:50:00.459Z,82
2022-08-20T10:55:00.160Z,81
2022-08-20T11:00:00.228Z,80
2022-08-20T11:05:00.212Z,81
2022-08-20T11:10:00.252Z,81
2022-08-20T11:15:00.225Z,82
2022-08-20T11:20:00.272Z,82
2022-08-20T11:25:00.222Z,82
2022-08-20T11:30:00.304Z,83
2022-08-20T11:35:00.133Z,83
2022-08-20T11:40:00.402Z,83
2022-08-20T11:45:00.129Z,84
2022-08-20T11:50:00.223Z,84
2022-08-20T11:55:00.207Z,83
2022-08-20T12:00:00.287Z,83
2022-08-20T12:05:00.253Z,84
2022-08-20T12:10:00.271Z,82
2022-08-20T12:15:00.224Z,81
2022-08-20T12:20:00.270Z,82
2022-08-20T12:25:00.133Z,80
2022-08-20T12:30:00.349Z,80
2022-08-20T12:35:00.131Z,81
2022-08-20T12:40:00.311Z,75
2022-08-20T12:45:00.180Z,78
2022-08-20T12:50:00.257Z,78
2022-08-20T12:55:00.191Z,77
2022-08-20T13:00:00.295Z,76
2022-08-20T13:05:04.874Z,75
2022-08-20T13:10:00.308Z,77
2022-08-20T13:15:00.155Z,75
2022-08-20T13:20:00.315Z,74
2022-08-20T13:25:00.156Z,74
2022-08-20T13:30:00.217Z,75
2022-08-20T13:35:00.264Z,74
2022-08-20T13:40:00.474Z,74
2022-08-20T13:45:00.167Z,74
2022-08-20T13:50:00.315Z,74
2022-08-20T13:55:00.213Z,75
2022-08-20T14:00:00.285Z,73
2022-08-20T14:05:00.139Z,72
2022-08-20T14:10:00.253Z,72
2022-08-20T14:15:00.133Z,71
2022-08-20T14:20:01.519Z,71
2022-08-20T14:25:00.137Z,70
2022-08-20T14:30:00.263Z,69
2022-08-20T14:35:00.266Z,69
2022-08-20T14:40:00.418Z,69
2022-08-20T14:45:00.204Z,69
2022-08-20T14:50:00.298Z,68
2022-08-20T14:55:00.191Z,67
2022-08-20T15:00:00.303Z,67
2022-08-20T15:05:00.228Z,68
2022-08-20T15:10:00.268Z,69
2022-08-20T15:15:04.760Z,68
2022-08-20T15:20:00.193Z,68
2022-08-20T15:25:00.187Z,68
2022-08-20T15:30:00.425Z,68
2022-08-20T15:35:00.129Z,68
2022-08-20T15:40:00.461Z,66
2022-08-20T15:45:00.140Z,67
2022-08-20T15:50:00.506Z,67
2022-08-20T15:55:00.124Z,66
2022-08-20T16:00:00.263Z,66
2022-08-20T16:05:00.227Z,66
2022-08-20T16:10:00.275Z,67
2022-08-20T16:15:00.170Z,65
2022-08-20T16:20:00.257Z,66
2022-08-20T16:25:00.212Z,66
2022-08-20T16:30:00.340Z,65
2022-08-20T16:35:00.207Z,64
2022-08-20T16:40:00.378Z,64
2022-08-20T16:45:00.214Z,63
2022-08-20T16:50:00.247Z,62
2022-08-20T16:55:00.164Z,63
2022-08-20T17:00:00.257Z,63
2022-08-20T17:05:00.467Z,63
2022-08-20T17:10:00.331Z,62
2022-08-20T17:15:00.132Z,63
2022-08-20T17:20:00.307Z,63
2022-08-20T17:25:00.186Z,63
2022-08-20T17:30:00.293Z,63
2022-08-20T17:35:00.150Z,63
2022-08-20T17:40:00.322Z,62
2022-08-20T17:45:00.193Z,62
2022-08-20T17:50:02.608Z,60
2022-08-20T17:55:00.139Z,61
2022-08-20T18:00:02.412Z,61
2022-08-20T18:05:00.281Z,62
2022-08-20T18:10:00.269Z,62
2022-08-20T18:15:00.235Z,62
2022-08-20T18:20:00.346Z,63
2022-08-20T18:25:00.123Z,63
2022-08-20T18:30:00.344Z,63
2022-08-20T18:35:03.785Z,63
2022-08-20T18:40:00.319Z,64
2022-08-20T18:45:00.205Z,64
2022-08-20T18:50:00.239Z,63
2022-08-20T18:55:00.133Z,63
2022-08-20T19:00:00.198Z,64
2022-08-20T19:05:02.960Z,64
2022-08-20T19:10:00.229Z,64
2022-08-20T19:15:00.244Z,65
2022-08-20T19:20:00.221Z,65
2022-08-20T19:25:00.161Z,65
2022-08-20T19:30:00.239Z,65
2022-08-20T19:35:00.210Z,65
2022-08-20T19:40:00.297Z,66
2022-08-20T19:45:00.213Z,66
2022-08-20T19:50:00.234Z,66
2022-08-20T19:55:03.839Z,67
2022-08-20T20:00:01.104Z,67
2022-08-20T20:05:00.211Z,67
2022-08-20T20:10:00.239Z,67
2022-08-20T20:15:00.136Z,68
2022-08-20T20:20:00.275Z,68
2022-08-20T20:25:00.136Z,68
2022-08-20T20:30:00.303Z,68
2022-08-20T20:35:00.173Z,69
2022-08-20T20:40:01.249Z,69
2022-08-20T20:45:00.239Z,69
2022-08-20T20:50:00.273Z,69
2022-08-20T20:55:00.260Z,69
2022-08-20T21:00:00.331Z,69
2022-08-20T21:05:00.176Z,70
2022-08-20T21:10:00.310Z,70
2022-08-20T21:15:00.213Z,70
2022-08-20T21:20:00.322Z,70
2022-08-20T21:25:00.162Z,70
2022-08-20T21:30:00.259Z,71
2022-08-20T21:35:00.182Z,71
2022-08-20T21:40:00.455Z,71
2022-08-20T21:45:00.212Z,70
2022-08-20T21:50:00.276Z,71
2022-08-20T21:55:00.133Z,71
2022-08-20T22:00:00.320Z,71
2022-08-20T22:05:00.203Z,71
2022-08-20T22:10:00.218Z,71
2022-08-20T22:15:00.252Z,71
2022-08-20T22:20:00.331Z,71
2022-08-20T22:25:00.280Z,71
2022-08-20T22:30:00.258Z,71
2022-08-20T22:35:00.232Z,71
2022-08-20T22:40:00.371Z,71
2022-08-20T22:45:00.290Z,71
2022-08-20T22:50:00.267Z,71
2022-08-20T22:55:00.191Z,71
2022-08-20T23:00:00.321Z,71
2022-08-20T23:05:00.182Z,71
2022-08-20T23:10:00.252Z,72
2022-08-20T23:15:00.243Z,72
2022-08-20T23:20:00.325Z,72
2022-08-20T23:25:00.805Z,72
2022-08-20T23:30:00.273Z,72
2022-08-20T23:35:00.275Z,72
2022-08-20T23:40:00.376Z,72
2022-08-20T23:45:00.240Z,72
2022-08-20T23:50:00.239Z,72
2022-08-20T23:55:00.179Z,72
